sensor_id;sensor_type;location;lat;lon;timestamp;P1;durP1;ratioP1;P2;durP2;ratioP2
37781;SDS011;23621;50.878;4.584;2022-09-17T00:01:01;3.95;;;1.60;;
37781;SDS011;23621;50.878;4.584;2022-09-17T00:03:31;3.83;;;1.30;;
37781;SDS011;23621;50.878;4.584;2022-09-17T00:06:06;4.68;;;1.17;;
37781;SDS011;23621;50.878;4.584;2022-09-17T00:08:35;2.95;;;1.15;;
37781;SDS011;23621;50.878;4.584;2022-09-17T00:11:09;3.13;;;1.10;;
37781;SDS011;23621;50.878;4.584;2022-09-17T00:13:41;2.75;;;1.05;;
37781;SDS011;23621;50.878;4.584;2022-09-17T00:16:09;3.70;;;1.15;;
37781;SDS011;23621;50.878;4.584;2022-09-17T00:18:37;3.38;;;1.15;;
37781;SDS011;23621;50.878;4.584;2022-09-17T00:21:13;2.08;;;0.93;;
37781;SDS011;23621;50.878;4.584;2022-09-17T00:23:42;1.48;;;1.10;;
37781;SDS011;23621;50.878;4.584;2022-09-17T00:26:09;3.42;;;1.38;;
37781;SDS011;23621;50.878;4.584;2022-09-17T00:28:36;2.78;;;1.25;;
37781;SDS011;23621;50.878;4.584;2022-09-17T00:31:07;2.75;;;1.30;;
37781;SDS011;23621;50.878;4.584;2022-09-17T00:33:34;2.28;;;1.08;;
37781;SDS011;23621;50.878;4.584;2022-09-17T00:36:02;2.60;;;1.10;;
37781;SDS011;23621;50.878;4.584;2022-09-17T00:38:29;2.72;;;1.52;;
37781;SDS011;23621;50.878;4.584;2022-09-17T00:40:56;5.32;;;1.90;;
37781;SDS011;23621;50.878;4.584;2022-09-17T00:43:33;4.00;;;1.58;;
37781;SDS011;23621;50.878;4.584;2022-09-17T00:46:17;4.28;;;1.38;;
37781;SDS011;23621;50.878;4.584;2022-09-17T00:48:48;4.13;;;1.30;;
37781;SDS011;23621;50.878;4.584;2022-09-17T00:51:17;3.08;;;1.25;;
37781;SDS011;23621;50.878;4.584;2022-09-17T00:53:48;3.90;;;1.42;;
37781;SDS011;23621;50.878;4.584;2022-09-17T00:56:20;4.40;;;1.30;;
37781;SDS011;23621;50.878;4.584;2022-09-17T00:58:50;4.40;;;1.60;;
37781;SDS011;23621;50.878;4.584;2022-09-17T01:01:18;2.83;;;1.58;;
37781;SDS011;23621;50.878;4.584;2022-09-17T01:03:45;2.63;;;1.48;;
37781;SDS011;23621;50.878;4.584;2022-09-17T01:06:14;4.57;;;1.30;;
37781;SDS011;23621;50.878;4.584;2022-09-17T01:11:41;4.80;;;1.83;;
37781;SDS011;23621;50.878;4.584;2022-09-17T01:20:06;3.17;;;1.30;;
37781;SDS011;23621;50.878;4.584;2022-09-17T01:32:11;1.63;;;0.93;;
37781;SDS011;23621;50.878;4.584;2022-09-17T01:37:29;2.42;;;1.25;;
37781;SDS011;23621;50.878;4.584;2022-09-17T01:42:48;3.53;;;1.15;;
37781;SDS011;23621;50.878;4.584;2022-09-17T01:45:26;2.58;;;0.85;;
37781;SDS011;23621;50.878;4.584;2022-09-17T01:48:03;1.83;;;1.15;;
37781;SDS011;23621;50.878;4.584;2022-09-17T01:50:37;2.17;;;0.95;;
37781;SDS011;23621;50.878;4.584;2022-09-17T01:53:31;4.47;;;1.23;;
37781;SDS011;23621;50.878;4.584;2022-09-17T01:56:03;3.25;;;1.42;;
37781;SDS011;23621;50.878;4.584;2022-09-17T01:58:35;4.53;;;1.40;;
37781;SDS011;23621;50.878;4.584;2022-09-17T02:01:09;1.92;;;1.60;;
37781;SDS011;23621;50.878;4.584;2022-09-17T02:03:43;4.78;;;1.60;;
37781;SDS011;23621;50.878;4.584;2022-09-17T02:06:21;3.83;;;1.52;;
37781;SDS011;23621;50.878;4.584;2022-09-17T02:09:00;4.00;;;1.52;;
37781;SDS011;23621;50.878;4.584;2022-09-17T02:11:33;5.82;;;1.77;;
37781;SDS011;23621;50.878;4.584;2022-09-17T02:14:08;3.72;;;1.85;;
37781;SDS011;23621;50.878;4.584;2022-09-17T02:16:44;2.10;;;1.38;;
37781;SDS011;23621;50.878;4.584;2022-09-17T02:21:46;6.47;;;1.65;;
37781;SDS011;23621;50.878;4.584;2022-09-17T02:24:23;4.00;;;1.73;;
37781;SDS011;23621;50.878;4.584;2022-09-17T02:30:11;4.50;;;1.30;;
37781;SDS011;23621;50.878;4.584;2022-09-17T02:32:38;4.88;;;1.60;;
37781;SDS011;23621;50.878;4.584;2022-09-17T02:35:05;1.42;;;1.00;;
37781;SDS011;23621;50.878;4.584;2022-09-17T02:37:32;4.38;;;1.25;;
37781;SDS011;23621;50.878;4.584;2022-09-17T02:39:59;4.70;;;1.58;;
37781;SDS011;23621;50.878;4.584;2022-09-17T02:42:29;1.92;;;1.20;;
37781;SDS011;23621;50.878;4.584;2022-09-17T02:53:23;4.07;;;1.30;;
37781;SDS011;23621;50.878;4.584;2022-09-17T02:58:55;5.85;;;1.40;;
37781;SDS011;23621;50.878;4.584;2022-09-17T03:01:41;4.65;;;1.33;;
37781;SDS011;23621;50.878;4.584;2022-09-17T03:04:16;2.90;;;1.33;;
37781;SDS011;23621;50.878;4.584;2022-09-17T03:06:45;2.47;;;1.42;;
37781;SDS011;23621;50.878;4.584;2022-09-17T03:09:15;3.88;;;1.30;;
37781;SDS011;23621;50.878;4.584;2022-09-17T03:11:42;3.45;;;1.33;;
37781;SDS011;23621;50.878;4.584;2022-09-17T03:14:09;7.97;;;1.80;;
37781;SDS011;23621;50.878;4.584;2022-09-17T03:16:36;1.92;;;1.10;;
37781;SDS011;23621;50.878;4.584;2022-09-17T03:19:03;3.72;;;1.27;;
37781;SDS011;23621;50.878;4.584;2022-09-17T03:21:29;3.08;;;1.23;;
37781;SDS011;23621;50.878;4.584;2022-09-17T03:23:56;3.90;;;1.20;;
37781;SDS011;23621;50.878;4.584;2022-09-17T03:26:25;2.67;;;1.27;;
37781;SDS011;23621;50.878;4.584;2022-09-17T03:28:52;2.35;;;1.25;;
37781;SDS011;23621;50.878;4.584;2022-09-17T03:31:19;3.85;;;1.30;;
37781;SDS011;23621;50.878;4.584;2022-09-17T03:33:46;6.00;;;1.20;;
37781;SDS011;23621;50.878;4.584;2022-09-17T03:36:13;4.80;;;1.30;;
37781;SDS011;23621;50.878;4.584;2022-09-17T03:38:40;3.30;;;1.38;;
37781;SDS011;23621;50.878;4.584;2022-09-17T03:41:07;3.65;;;1.33;;
37781;SDS011;23621;50.878;4.584;2022-09-17T03:43:33;4.47;;;1.35;;
37781;SDS011;23621;50.878;4.584;2022-09-17T03:46:00;5.72;;;1.50;;
37781;SDS011;23621;50.878;4.584;2022-09-17T03:48:27;6.65;;;1.77;;
37781;SDS011;23621;50.878;4.584;2022-09-17T03:50:55;4.38;;;1.58;;
37781;SDS011;23621;50.878;4.584;2022-09-17T03:53:22;3.17;;;1.40;;
37781;SDS011;23621;50.878;4.584;2022-09-17T03:55:49;2.42;;;1.30;;
37781;SDS011;23621;50.878;4.584;2022-09-17T03:58:15;4.20;;;1.60;;
37781;SDS011;23621;50.878;4.584;2022-09-17T04:00:42;5.45;;;1.70;;
37781;SDS011;23621;50.878;4.584;2022-09-17T04:03:09;6.40;;;1.80;;
37781;SDS011;23621;50.878;4.584;2022-09-17T04:05:36;2.85;;;1.38;;
37781;SDS011;23621;50.878;4.584;2022-09-17T04:08:03;3.67;;;1.40;;
37781;SDS011;23621;50.878;4.584;2022-09-17T04:10:29;7.10;;;2.05;;
37781;SDS011;23621;50.878;4.584;2022-09-17T04:12:56;5.80;;;1.60;;
37781;SDS011;23621;50.878;4.584;2022-09-17T04:15:23;5.32;;;1.65;;
37781;SDS011;23621;50.878;4.584;2022-09-17T04:17:50;3.00;;;1.40;;
37781;SDS011;23621;50.878;4.584;2022-09-17T04:20:21;7.38;;;1.70;;
37781;SDS011;23621;50.878;4.584;2022-09-17T04:22:49;5.50;;;1.20;;
37781;SDS011;23621;50.878;4.584;2022-09-17T04:25:16;4.97;;;1.50;;
37781;SDS011;23621;50.878;4.584;2022-09-17T04:27:43;3.38;;;1.48;;
37781;SDS011;23621;50.878;4.584;2022-09-17T04:30:11;3.92;;;1.55;;
37781;SDS011;23621;50.878;4.584;2022-09-17T04:32:38;6.28;;;1.63;;
37781;SDS011;23621;50.878;4.584;2022-09-17T04:35:05;4.50;;;1.63;;
37781;SDS011;23621;50.878;4.584;2022-09-17T04:37:32;4.10;;;1.30;;
37781;SDS011;23621;50.878;4.584;2022-09-17T04:39:59;6.97;;;1.30;;
37781;SDS011;23621;50.878;4.584;2022-09-17T04:42:32;4.28;;;1.50;;
37781;SDS011;23621;50.878;4.584;2022-09-17T04:44:59;6.03;;;1.67;;
37781;SDS011;23621;50.878;4.584;2022-09-17T04:47:25;7.05;;;1.70;;
37781;SDS011;23621;50.878;4.584;2022-09-17T04:49:52;5.88;;;1.50;;
37781;SDS011;23621;50.878;4.584;2022-09-17T04:52:19;3.50;;;1.40;;
37781;SDS011;23621;50.878;4.584;2022-09-17T04:54:45;5.28;;;1.50;;
37781;SDS011;23621;50.878;4.584;2022-09-17T04:57:12;7.10;;;1.45;;
37781;SDS011;23621;50.878;4.584;2022-09-17T04:59:39;4.53;;;1.70;;
37781;SDS011;23621;50.878;4.584;2022-09-17T05:02:05;3.53;;;1.50;;
37781;SDS011;23621;50.878;4.584;2022-09-17T05:04:32;7.93;;;1.80;;
37781;SDS011;23621;50.878;4.584;2022-09-17T05:06:59;6.05;;;1.38;;
37781;SDS011;23621;50.878;4.584;2022-09-17T05:09:26;4.05;;;1.27;;
37781;SDS011;23621;50.878;4.584;2022-09-17T05:11:52;3.42;;;1.48;;
37781;SDS011;23621;50.878;4.584;2022-09-17T05:14:19;6.47;;;1.70;;
37781;SDS011;23621;50.878;4.584;2022-09-17T05:16:46;3.55;;;1.38;;
37781;SDS011;23621;50.878;4.584;2022-09-17T05:19:13;5.60;;;1.42;;
37781;SDS011;23621;50.878;4.584;2022-09-17T05:21:40;12.07;;;2.05;;
37781;SDS011;23621;50.878;4.584;2022-09-17T05:24:06;7.63;;;1.80;;
37781;SDS011;23621;50.878;4.584;2022-09-17T05:26:34;4.57;;;1.42;;
37781;SDS011;23621;50.878;4.584;2022-09-17T05:29:00;7.40;;;2.15;;
37781;SDS011;23621;50.878;4.584;2022-09-17T05:31:27;4.13;;;1.52;;
37781;SDS011;23621;50.878;4.584;2022-09-17T05:33:54;3.00;;;1.70;;
37781;SDS011;23621;50.878;4.584;2022-09-17T05:36:22;5.28;;;1.48;;
37781;SDS011;23621;50.878;4.584;2022-09-17T05:38:49;6.57;;;1.80;;
37781;SDS011;23621;50.878;4.584;2022-09-17T05:41:16;8.55;;;1.90;;
37781;SDS011;23621;50.878;4.584;2022-09-17T05:43:42;3.92;;;1.40;;
37781;SDS011;23621;50.878;4.584;2022-09-17T05:46:09;5.50;;;1.65;;
37781;SDS011;23621;50.878;4.584;2022-09-17T05:48:36;6.78;;;2.10;;
37781;SDS011;23621;50.878;4.584;2022-09-17T05:51:03;5.80;;;1.35;;
37781;SDS011;23621;50.878;4.584;2022-09-17T05:53:30;5.85;;;1.75;;
37781;SDS011;23621;50.878;4.584;2022-09-17T05:55:57;5.80;;;2.05;;
37781;SDS011;23621;50.878;4.584;2022-09-17T05:58:24;4.30;;;1.60;;
37781;SDS011;23621;50.878;4.584;2022-09-17T06:00:52;5.00;;;1.60;;
37781;SDS011;23621;50.878;4.584;2022-09-17T06:03:19;4.65;;;1.63;;
37781;SDS011;23621;50.878;4.584;2022-09-17T06:05:52;6.18;;;1.70;;
37781;SDS011;23621;50.878;4.584;2022-09-17T06:08:20;4.80;;;1.55;;
37781;SDS011;23621;50.878;4.584;2022-09-17T06:10:48;5.97;;;2.03;;
37781;SDS011;23621;50.878;4.584;2022-09-17T06:13:18;6.07;;;1.80;;
37781;SDS011;23621;50.878;4.584;2022-09-17T06:15:49;4.43;;;1.45;;
37781;SDS011;23621;50.878;4.584;2022-09-17T06:18:18;4.93;;;1.55;;
37781;SDS011;23621;50.878;4.584;2022-09-17T06:20:59;8.38;;;1.92;;
37781;SDS011;23621;50.878;4.584;2022-09-17T06:23:30;3.65;;;1.77;;
37781;SDS011;23621;50.878;4.584;2022-09-17T06:26:00;4.63;;;2.08;;
37781;SDS011;23621;50.878;4.584;2022-09-17T06:28:28;5.55;;;1.90;;
37781;SDS011;23621;50.878;4.584;2022-09-17T06:30:59;5.15;;;1.77;;
37781;SDS011;23621;50.878;4.584;2022-09-17T06:33:30;4.07;;;1.83;;
37781;SDS011;23621;50.878;4.584;2022-09-17T06:35:58;6.45;;;2.15;;
37781;SDS011;23621;50.878;4.584;2022-09-17T06:38:27;5.80;;;1.70;;
37781;SDS011;23621;50.878;4.584;2022-09-17T06:40:55;2.53;;;1.58;;
37781;SDS011;23621;50.878;4.584;2022-09-17T06:43:22;5.38;;;2.00;;
37781;SDS011;23621;50.878;4.584;2022-09-17T06:45:56;3.90;;;2.03;;
37781;SDS011;23621;50.878;4.584;2022-09-17T06:48:24;6.85;;;1.85;;
37781;SDS011;23621;50.878;4.584;2022-09-17T06:50:54;5.60;;;1.90;;
37781;SDS011;23621;50.878;4.584;2022-09-17T06:53:26;4.78;;;1.52;;
37781;SDS011;23621;50.878;4.584;2022-09-17T06:55:58;3.13;;;1.63;;
37781;SDS011;23621;50.878;4.584;2022-09-17T06:58:31;6.65;;;1.80;;
37781;SDS011;23621;50.878;4.584;2022-09-17T07:00:59;8.45;;;1.92;;
37781;SDS011;23621;50.878;4.584;2022-09-17T07:03:27;7.22;;;2.03;;
37781;SDS011;23621;50.878;4.584;2022-09-17T07:05:55;3.20;;;1.92;;
37781;SDS011;23621;50.878;4.584;2022-09-17T07:08:23;5.55;;;1.65;;
37781;SDS011;23621;50.878;4.584;2022-09-17T07:10:53;4.28;;;1.83;;
37781;SDS011;23621;50.878;4.584;2022-09-17T07:13:21;6.70;;;1.75;;
37781;SDS011;23621;50.878;4.584;2022-09-17T07:15:52;4.40;;;1.95;;
37781;SDS011;23621;50.878;4.584;2022-09-17T07:18:23;4.55;;;1.60;;
37781;SDS011;23621;50.878;4.584;2022-09-17T07:20:51;4.40;;;1.58;;
37781;SDS011;23621;50.878;4.584;2022-09-17T07:23:22;4.75;;;1.70;;
37781;SDS011;23621;50.878;4.584;2022-09-17T07:25:51;4.25;;;1.58;;
37781;SDS011;23621;50.878;4.584;2022-09-17T07:28:18;6.47;;;2.15;;
37781;SDS011;23621;50.878;4.584;2022-09-17T07:30:46;3.97;;;1.80;;
37781;SDS011;23621;50.878;4.584;2022-09-17T07:33:15;5.35;;;1.50;;
37781;SDS011;23621;50.878;4.584;2022-09-17T07:35:54;3.75;;;1.40;;
37781;SDS011;23621;50.878;4.584;2022-09-17T07:38:22;4.53;;;1.33;;
37781;SDS011;23621;50.878;4.584;2022-09-17T07:41:32;3.60;;;1.65;;
37781;SDS011;23621;50.878;4.584;2022-09-17T07:43:40;5.80;;;1.55;;
37781;SDS011;23621;50.878;4.584;2022-09-17T07:46:13;3.90;;;1.25;;
37781;SDS011;23621;50.878;4.584;2022-09-17T07:48:41;3.35;;;1.48;;
37781;SDS011;23621;50.878;4.584;2022-09-17T07:51:13;2.67;;;1.17;;
37781;SDS011;23621;50.878;4.584;2022-09-17T07:53:44;4.10;;;1.40;;
37781;SDS011;23621;50.878;4.584;2022-09-17T07:56:12;3.85;;;1.25;;
37781;SDS011;23621;50.878;4.584;2022-09-17T07:58:39;4.05;;;1.15;;
37781;SDS011;23621;50.878;4.584;2022-09-17T08:01:08;4.88;;;2.13;;
37781;SDS011;23621;50.878;4.584;2022-09-17T08:03:37;3.40;;;1.33;;
37781;SDS011;23621;50.878;4.584;2022-09-17T08:06:13;3.85;;;1.40;;
37781;SDS011;23621;50.878;4.584;2022-09-17T08:08:41;5.10;;;1.50;;
37781;SDS011;23621;50.878;4.584;2022-09-17T08:11:08;1.67;;;1.20;;
37781;SDS011;23621;50.878;4.584;2022-09-17T08:13:57;5.43;;;1.63;;
37781;SDS011;23621;50.878;4.584;2022-09-17T08:16:25;2.45;;;1.55;;
37781;SDS011;23621;50.878;4.584;2022-09-17T08:18:55;3.30;;;1.30;;
37781;SDS011;23621;50.878;4.584;2022-09-17T08:21:23;6.65;;;1.70;;
37781;SDS011;23621;50.878;4.584;2022-09-17T08:23:50;5.90;;;1.52;;
37781;SDS011;23621;50.878;4.584;2022-09-17T08:26:17;5.30;;;1.50;;
37781;SDS011;23621;50.878;4.584;2022-09-17T08:28:51;3.67;;;1.27;;
37781;SDS011;23621;50.878;4.584;2022-09-17T08:31:21;3.30;;;1.25;;
37781;SDS011;23621;50.878;4.584;2022-09-17T08:33:49;5.38;;;1.70;;
37781;SDS011;23621;50.878;4.584;2022-09-17T08:36:17;2.90;;;1.50;;
37781;SDS011;23621;50.878;4.584;2022-09-17T08:38:44;4.13;;;1.30;;
37781;SDS011;23621;50.878;4.584;2022-09-17T08:41:16;3.40;;;1.38;;
37781;SDS011;23621;50.878;4.584;2022-09-17T08:46:31;4.72;;;1.40;;
37781;SDS011;23621;50.878;4.584;2022-09-17T09:00:10;3.50;;;1.65;;
37781;SDS011;23621;50.878;4.584;2022-09-17T09:05:16;2.95;;;1.27;;
37781;SDS011;23621;50.878;4.584;2022-09-17T09:07:58;2.53;;;1.40;;
37781;SDS011;23621;50.878;4.584;2022-09-17T09:10:51;3.22;;;1.33;;
37781;SDS011;23621;50.878;4.584;2022-09-17T09:13:21;4.20;;;1.40;;
37781;SDS011;23621;50.878;4.584;2022-09-17T09:16:00;3.20;;;1.30;;
37781;SDS011;23621;50.878;4.584;2022-09-17T09:18:33;2.70;;;1.17;;
37781;SDS011;23621;50.878;4.584;2022-09-17T09:24:20;3.72;;;1.60;;
37781;SDS011;23621;50.878;4.584;2022-09-17T09:26:54;1.58;;;1.05;;
37781;SDS011;23621;50.878;4.584;2022-09-17T09:32:19;4.25;;;1.10;;
37781;SDS011;23621;50.878;4.584;2022-09-17T09:35:07;2.22;;;0.93;;
37781;SDS011;23621;50.878;4.584;2022-09-17T09:41:09;3.70;;;1.33;;
37781;SDS011;23621;50.878;4.584;2022-09-17T09:58:16;4.47;;;1.50;;
37781;SDS011;23621;50.878;4.584;2022-09-17T10:01:02;3.25;;;1.30;;
37781;SDS011;23621;50.878;4.584;2022-09-17T10:03:41;2.95;;;1.20;;
37781;SDS011;23621;50.878;4.584;2022-09-17T10:06:11;1.52;;;1.00;;
37781;SDS011;23621;50.878;4.584;2022-09-17T10:08:40;2.55;;;1.17;;
37781;SDS011;23621;50.878;4.584;2022-09-17T10:11:28;1.98;;;0.90;;
37781;SDS011;23621;50.878;4.584;2022-09-17T10:16:48;1.65;;;0.80;;
37781;SDS011;23621;50.878;4.584;2022-09-17T10:19:19;1.08;;;0.93;;
37781;SDS011;23621;50.878;4.584;2022-09-17T10:21:51;1.23;;;0.90;;
37781;SDS011;23621;50.878;4.584;2022-09-17T10:27:00;1.27;;;0.80;;
37781;SDS011;23621;50.878;4.584;2022-09-17T10:29:30;3.25;;;0.70;;
37781;SDS011;23621;50.878;4.584;2022-09-17T10:31:59;0.93;;;0.70;;
37781;SDS011;23621;50.878;4.584;2022-09-17T10:34:27;3.58;;;0.90;;
37781;SDS011;23621;50.878;4.584;2022-09-17T10:36:56;1.67;;;0.95;;
37781;SDS011;23621;50.878;4.584;2022-09-17T10:42:15;0.98;;;0.85;;
37781;SDS011;23621;50.878;4.584;2022-09-17T10:44:50;1.27;;;0.80;;
37781;SDS011;23621;50.878;4.584;2022-09-17T10:52:31;1.80;;;0.65;;
37781;SDS011;23621;50.878;4.584;2022-09-17T10:57:55;0.80;;;0.68;;
37781;SDS011;23621;50.878;4.584;2022-09-17T11:06:26;0.43;;;0.43;;
37781;SDS011;23621;50.878;4.584;2022-09-17T11:09:18;0.90;;;0.60;;
37781;SDS011;23621;50.878;4.584;2022-09-17T11:14:50;7.03;;;1.05;;
37781;SDS011;23621;50.878;4.584;2022-09-17T11:17:28;5.22;;;1.20;;
37781;SDS011;23621;50.878;4.584;2022-09-17T11:20:23;0.82;;;0.77;;
37781;SDS011;23621;50.878;4.584;2022-09-17T11:25:51;4.57;;;1.10;;
37781;SDS011;23621;50.878;4.584;2022-09-17T11:28:47;2.15;;;1.20;;
37781;SDS011;23621;50.878;4.584;2022-09-17T11:31:36;3.35;;;1.30;;
37781;SDS011;23621;50.878;4.584;2022-09-17T11:39:48;2.67;;;0.88;;
37781;SDS011;23621;50.878;4.584;2022-09-17T11:42:23;1.40;;;0.80;;
37781;SDS011;23621;50.878;4.584;2022-09-17T11:45:43;3.05;;;0.77;;
37781;SDS011;23621;50.878;4.584;2022-09-17T11:47:49;2.03;;;0.90;;
37781;SDS011;23621;50.878;4.584;2022-09-17T11:50:31;1.45;;;0.80;;
37781;SDS011;23621;50.878;4.584;2022-09-17T11:53:19;2.05;;;0.80;;
37781;SDS011;23621;50.878;4.584;2022-09-17T11:56:01;2.47;;;0.80;;
37781;SDS011;23621;50.878;4.584;2022-09-17T11:58:43;2.55;;;1.00;;
37781;SDS011;23621;50.878;4.584;2022-09-17T12:07:21;2.20;;;0.90;;
37781;SDS011;23621;50.878;4.584;2022-09-17T12:09:56;1.90;;;0.93;;
37781;SDS011;23621;50.878;4.584;2022-09-17T12:12:28;4.10;;;1.27;;
37781;SDS011;23621;50.878;4.584;2022-09-17T12:15:21;3.58;;;0.88;;
37781;SDS011;23621;50.878;4.584;2022-09-17T12:20:58;2.60;;;1.08;;
37781;SDS011;23621;50.878;4.584;2022-09-17T12:23:34;2.30;;;1.17;;
37781;SDS011;23621;50.878;4.584;2022-09-17T12:28:54;3.72;;;1.20;;
37781;SDS011;23621;50.878;4.584;2022-09-17T12:34:22;2.08;;;1.10;;
37781;SDS011;23621;50.878;4.584;2022-09-17T12:42:56;2.15;;;1.27;;
37781;SDS011;23621;50.878;4.584;2022-09-17T12:48:27;3.88;;;1.50;;
37781;SDS011;23621;50.878;4.584;2022-09-17T12:59:49;9.48;;;1.10;;
37781;SDS011;23621;50.878;4.584;2022-09-17T13:19:12;4.28;;;1.83;;
37781;SDS011;23621;50.878;4.584;2022-09-17T13:21:59;2.72;;;1.50;;
37781;SDS011;23621;50.878;4.584;2022-09-17T13:24:32;4.78;;;1.50;;
37781;SDS011;23621;50.878;4.584;2022-09-17T13:27:00;2.03;;;1.10;;
37781;SDS011;23621;50.878;4.584;2022-09-17T13:37:32;4.10;;;1.80;;
37781;SDS011;23621;50.878;4.584;2022-09-17T13:40:21;2.67;;;1.52;;
37781;SDS011;23621;50.878;4.584;2022-09-17T13:42:57;3.63;;;1.60;;
37781;SDS011;23621;50.878;4.584;2022-09-17T13:45:33;5.90;;;1.60;;
37781;SDS011;23621;50.878;4.584;2022-09-17T13:48:28;3.00;;;1.55;;
37781;SDS011;23621;50.878;4.584;2022-09-17T13:54:02;2.25;;;1.17;;
37781;SDS011;23621;50.878;4.584;2022-09-17T13:56:32;6.00;;;1.70;;
37781;SDS011;23621;50.878;4.584;2022-09-17T13:59:07;5.45;;;1.80;;
37781;SDS011;23621;50.878;4.584;2022-09-17T14:08:09;3.58;;;1.00;;
37781;SDS011;23621;50.878;4.584;2022-09-17T14:10:41;1.67;;;0.90;;
37781;SDS011;23621;50.878;4.584;2022-09-17T14:13:22;2.72;;;1.13;;
37781;SDS011;23621;50.878;4.584;2022-09-17T14:16:20;1.23;;;0.98;;
37781;SDS011;23621;50.878;4.584;2022-09-17T14:22:19;2.23;;;1.03;;
37781;SDS011;23621;50.878;4.584;2022-09-17T14:24:52;2.33;;;0.70;;
37781;SDS011;23621;50.878;4.584;2022-09-17T14:30:29;1.45;;;0.55;;
37781;SDS011;23621;50.878;4.584;2022-09-17T14:33:07;3.22;;;1.20;;
37781;SDS011;23621;50.878;4.584;2022-09-17T14:35:45;2.05;;;0.73;;
37781;SDS011;23621;50.878;4.584;2022-09-17T14:38:29;1.52;;;0.63;;
37781;SDS011;23621;50.878;4.584;2022-09-17T14:41:06;2.22;;;0.60;;
37781;SDS011;23621;50.878;4.584;2022-09-17T14:43:55;1.92;;;0.90;;
37781;SDS011;23621;50.878;4.584;2022-09-17T14:46:41;2.80;;;1.10;;
37781;SDS011;23621;50.878;4.584;2022-09-17T14:49:19;4.45;;;1.00;;
37781;SDS011;23621;50.878;4.584;2022-09-17T14:51:51;1.83;;;0.90;;
37781;SDS011;23621;50.878;4.584;2022-09-17T14:56:51;1.65;;;0.90;;
37781;SDS011;23621;50.878;4.584;2022-09-17T14:59:25;2.33;;;0.83;;
37781;SDS011;23621;50.878;4.584;2022-09-17T15:05:26;2.70;;;0.90;;
37781;SDS011;23621;50.878;4.584;2022-09-17T15:08:07;2.40;;;1.10;;
37781;SDS011;23621;50.878;4.584;2022-09-17T15:13:27;1.73;;;1.00;;
37781;SDS011;23621;50.878;4.584;2022-09-17T15:16:05;2.58;;;1.08;;
37781;SDS011;23621;50.878;4.584;2022-09-17T15:18:53;3.03;;;0.80;;
37781;SDS011;23621;50.878;4.584;2022-09-17T15:23:52;0.68;;;0.63;;
37781;SDS011;23621;50.878;4.584;2022-09-17T15:26:25;2.45;;;1.15;;
37781;SDS011;23621;50.878;4.584;2022-09-17T15:28:57;1.65;;;0.73;;
37781;SDS011;23621;50.878;4.584;2022-09-17T15:31:24;2.05;;;0.70;;
37781;SDS011;23621;50.878;4.584;2022-09-17T15:33:54;2.03;;;0.77;;
37781;SDS011;23621;50.878;4.584;2022-09-17T15:36:25;1.02;;;0.80;;
37781;SDS011;23621;50.878;4.584;2022-09-17T15:38:52;2.70;;;0.82;;
37781;SDS011;23621;50.878;4.584;2022-09-17T15:44:07;2.65;;;0.80;;
37781;SDS011;23621;50.878;4.584;2022-09-17T15:47:32;2.40;;;1.00;;
37781;SDS011;23621;50.878;4.584;2022-09-17T15:50:20;1.27;;;0.60;;
37781;SDS011;23621;50.878;4.584;2022-09-17T15:55:37;3.97;;;1.00;;
37781;SDS011;23621;50.878;4.584;2022-09-17T16:08:55;3.45;;;1.10;;
37781;SDS011;23621;50.878;4.584;2022-09-17T16:11:27;2.33;;;1.00;;
37781;SDS011;23621;50.878;4.584;2022-09-17T16:13:58;2.20;;;1.05;;
37781;SDS011;23621;50.878;4.584;2022-09-17T16:16:33;1.92;;;1.00;;
37781;SDS011;23621;50.878;4.584;2022-09-17T16:19:02;3.25;;;1.30;;
37781;SDS011;23621;50.878;4.584;2022-09-17T16:21:29;2.45;;;1.42;;
37781;SDS011;23621;50.878;4.584;2022-09-17T16:23:57;2.30;;;1.20;;
37781;SDS011;23621;50.878;4.584;2022-09-17T16:26:26;2.70;;;1.08;;
37781;SDS011;23621;50.878;4.584;2022-09-17T16:28:57;2.35;;;1.00;;
37781;SDS011;23621;50.878;4.584;2022-09-17T16:31:30;0.98;;;0.90;;
37781;SDS011;23621;50.878;4.584;2022-09-17T16:33:58;1.42;;;0.70;;
37781;SDS011;23621;50.878;4.584;2022-09-17T16:36:25;2.85;;;1.20;;
37781;SDS011;23621;50.878;4.584;2022-09-17T16:38:56;4.40;;;1.35;;
37781;SDS011;23621;50.878;4.584;2022-09-17T16:41:23;1.33;;;0.95;;
37781;SDS011;23621;50.878;4.584;2022-09-17T16:43:50;1.88;;;1.10;;
37781;SDS011;23621;50.878;4.584;2022-09-17T16:46:17;2.55;;;1.10;;
37781;SDS011;23621;50.878;4.584;2022-09-17T16:48:44;4.38;;;1.48;;
37781;SDS011;23621;50.878;4.584;2022-09-17T16:51:15;1.83;;;1.20;;
37781;SDS011;23621;50.878;4.584;2022-09-17T16:53:42;2.88;;;1.10;;
37781;SDS011;23621;50.878;4.584;2022-09-17T16:56:09;1.45;;;1.02;;
37781;SDS011;23621;50.878;4.584;2022-09-17T16:58:37;3.88;;;1.40;;
37781;SDS011;23621;50.878;4.584;2022-09-17T17:01:05;2.28;;;1.30;;
37781;SDS011;23621;50.878;4.584;2022-09-17T17:03:36;4.25;;;1.80;;
37781;SDS011;23621;50.878;4.584;2022-09-17T17:06:03;4.40;;;1.55;;
37781;SDS011;23621;50.878;4.584;2022-09-17T17:08:31;2.58;;;1.77;;
37781;SDS011;23621;50.878;4.584;2022-09-17T17:10:59;3.05;;;1.42;;
37781;SDS011;23621;50.878;4.584;2022-09-17T17:13:26;4.72;;;1.60;;
37781;SDS011;23621;50.878;4.584;2022-09-17T17:15:53;2.38;;;1.23;;
37781;SDS011;23621;50.878;4.584;2022-09-17T17:18:21;3.28;;;1.40;;
37781;SDS011;23621;50.878;4.584;2022-09-17T17:20:49;3.47;;;1.35;;
37781;SDS011;23621;50.878;4.584;2022-09-17T17:23:16;4.32;;;1.45;;
37781;SDS011;23621;50.878;4.584;2022-09-17T17:25:42;3.08;;;1.20;;
37781;SDS011;23621;50.878;4.584;2022-09-17T17:28:09;2.78;;;1.35;;
37781;SDS011;23621;50.878;4.584;2022-09-17T17:30:36;3.28;;;2.05;;
37781;SDS011;23621;50.878;4.584;2022-09-17T17:33:03;3.22;;;1.40;;
37781;SDS011;23621;50.878;4.584;2022-09-17T17:35:30;4.15;;;2.30;;
37781;SDS011;23621;50.878;4.584;2022-09-17T17:37:57;3.08;;;1.77;;
37781;SDS011;23621;50.878;4.584;2022-09-17T17:40:24;4.28;;;1.80;;
37781;SDS011;23621;50.878;4.584;2022-09-17T17:42:52;2.67;;;1.60;;
37781;SDS011;23621;50.878;4.584;2022-09-17T17:45:19;5.80;;;1.70;;
37781;SDS011;23621;50.878;4.584;2022-09-17T17:47:46;3.80;;;1.55;;
37781;SDS011;23621;50.878;4.584;2022-09-17T17:50:13;2.35;;;1.60;;
37781;SDS011;23621;50.878;4.584;2022-09-17T17:52:41;5.22;;;1.70;;
37781;SDS011;23621;50.878;4.584;2022-09-17T17:55:13;3.35;;;1.75;;
37781;SDS011;23621;50.878;4.584;2022-09-17T17:57:41;2.30;;;1.45;;
37781;SDS011;23621;50.878;4.584;2022-09-17T18:00:08;2.30;;;1.60;;
37781;SDS011;23621;50.878;4.584;2022-09-17T18:02:37;2.05;;;1.50;;
37781;SDS011;23621;50.878;4.584;2022-09-17T18:05:04;2.63;;;1.60;;
37781;SDS011;23621;50.878;4.584;2022-09-17T18:07:31;3.65;;;1.80;;
37781;SDS011;23621;50.878;4.584;2022-09-17T18:09:59;3.88;;;1.40;;
37781;SDS011;23621;50.878;4.584;2022-09-17T18:12:25;4.05;;;1.52;;
37781;SDS011;23621;50.878;4.584;2022-09-17T18:14:52;2.70;;;1.70;;
37781;SDS011;23621;50.878;4.584;2022-09-17T18:17:19;4.20;;;1.40;;
37781;SDS011;23621;50.878;4.584;2022-09-17T18:19:46;4.25;;;1.63;;
37781;SDS011;23621;50.878;4.584;2022-09-17T18:22:12;5.88;;;1.50;;
37781;SDS011;23621;50.878;4.584;2022-09-17T18:24:39;2.45;;;1.40;;
37781;SDS011;23621;50.878;4.584;2022-09-17T18:27:06;3.25;;;1.50;;
37781;SDS011;23621;50.878;4.584;2022-09-17T18:29:33;2.35;;;1.50;;
37781;SDS011;23621;50.878;4.584;2022-09-17T18:31:59;2.35;;;1.55;;
37781;SDS011;23621;50.878;4.584;2022-09-17T18:34:26;2.60;;;1.70;;
37781;SDS011;23621;50.878;4.584;2022-09-17T18:36:53;5.50;;;1.80;;
37781;SDS011;23621;50.878;4.584;2022-09-17T18:39:20;4.32;;;1.60;;
37781;SDS011;23621;50.878;4.584;2022-09-17T18:42:07;3.35;;;1.60;;
37781;SDS011;23621;50.878;4.584;2022-09-17T18:44:34;3.15;;;1.80;;
37781;SDS011;23621;50.878;4.584;2022-09-17T18:47:01;4.10;;;2.05;;
37781;SDS011;23621;50.878;4.584;2022-09-17T18:49:28;2.40;;;1.60;;